createdAt,value
2022-10-05T00:01:34.758Z,0.90
2022-10-05T00:04:15.785Z,0.65
2022-10-05T00:06:51.252Z,0.68
2022-10-05T00:09:21.320Z,1.63
2022-10-05T00:11:50.407Z,1.00
2022-10-05T00:14:28.514Z,0.82
2022-10-05T00:16:57.059Z,1.10
2022-10-05T00:19:39.174Z,0.43
2022-10-05T00:22:18.050Z,0.68
2022-10-05T00:36:12.182Z,1.13
2022-10-05T00:38:40.986Z,0.85
2022-10-05T00:41:20.216Z,0.50
2022-10-05T00:44:12.164Z,0.70
2022-10-05T00:47:08.660Z,0.80
2022-10-05T00:50:21.842Z,0.50
2022-10-05T00:53:04.874Z,0.60
2022-10-05T00:55:41.009Z,0.50
2022-10-05T00:58:15.100Z,0.65
2022-10-05T01:00:59.061Z,0.63
2022-10-05T01:03:53.012Z,0.43
2022-10-05T01:06:26.754Z,0.70
2022-10-05T01:09:19.629Z,0.80
2022-10-05T01:12:03.523Z,0.50
2022-10-05T01:15:15.059Z,0.65
2022-10-05T01:18:02.953Z,1.08
2022-10-05T01:20:50.346Z,1.10
2022-10-05T01:23:30.513Z,0.45
2022-10-05T01:26:24.835Z,0.88
2022-10-05T01:29:15.804Z,0.85
2022-10-05T01:31:57.813Z,0.20
2022-10-05T01:34:49.513Z,0.70
2022-10-05T01:37:51.642Z,0.80
2022-10-05T01:40:41.218Z,0.63
2022-10-05T01:43:26.905Z,1.38
2022-10-05T01:46:01.354Z,0.70
2022-10-05T01:48:53.752Z,0.52
2022-10-05T01:51:37.554Z,0.75
2022-10-05T01:54:22.875Z,0.80
2022-10-05T01:57:09.228Z,1.40
2022-10-05T01:59:58.026Z,0.50
2022-10-05T02:02:29.259Z,1.10
2022-10-05T02:05:05.096Z,1.08
2022-10-05T02:07:42.979Z,0.73
2022-10-05T02:13:07.708Z,0.80
2022-10-05T02:15:42.676Z,0.98
2022-10-05T02:18:18.119Z,0.70
2022-10-05T02:20:48.349Z,0.77
2022-10-05T02:23:21.474Z,0.77
2022-10-05T02:25:51.755Z,0.80
2022-10-05T02:29:02.757Z,1.10
2022-10-05T02:31:35.922Z,0.60
2022-10-05T02:34:22.294Z,0.73
2022-10-05T02:36:57.652Z,1.10
2022-10-05T02:39:39.289Z,0.70
2022-10-05T02:42:37.195Z,0.68
2022-10-05T02:45:24.073Z,0.52
2022-10-05T02:48:10.709Z,1.20
2022-10-05T02:51:10.733Z,0.30
2022-10-05T02:54:07.211Z,0.75
2022-10-05T02:56:55.628Z,0.82
2022-10-05T02:59:33.731Z,1.00
2022-10-05T03:02:22.703Z,0.88
2022-10-05T03:05:14.993Z,0.98
2022-10-05T03:08:06.440Z,0.85
2022-10-05T03:10:36.824Z,0.63
2022-10-05T03:13:07.002Z,0.40
2022-10-05T03:16:03.542Z,1.02
2022-10-05T03:19:04.561Z,1.10
2022-10-05T03:21:52.634Z,0.70
2022-10-05T03:24:53.616Z,1.10
2022-10-05T03:27:43.975Z,0.55
2022-10-05T03:30:22.248Z,0.25
2022-10-05T03:32:55.748Z,1.10
2022-10-05T03:35:41.314Z,0.70
2022-10-05T03:38:24.112Z,1.05
2022-10-05T03:41:06.724Z,1.13
2022-10-05T03:43:54.507Z,0.90
2022-10-05T03:49:16.436Z,0.65
2022-10-05T03:51:48.933Z,0.90
2022-10-05T03:54:24.922Z,1.00
2022-10-05T03:57:06.365Z,0.65
2022-10-05T03:59:40.297Z,1.35
2022-10-05T04:02:20.402Z,0.80
2022-10-05T04:04:53.037Z,0.40
2022-10-05T04:07:46.256Z,0.90
2022-10-05T04:10:29.811Z,0.93
2022-10-05T04:13:27.241Z,0.68
2022-10-05T04:16:28.357Z,0.93
2022-10-05T04:19:02.931Z,0.85
2022-10-05T04:21:38.835Z,0.75
2022-10-05T04:24:05.959Z,0.70
2022-10-05T04:26:54.839Z,1.50
2022-10-05T04:29:55.621Z,1.30
2022-10-05T04:32:51.697Z,0.80
2022-10-05T04:35:30.435Z,0.95
2022-10-05T04:38:04.138Z,1.15
2022-10-05T04:40:39.202Z,1.98
2022-10-05T04:43:29.113Z,1.33
2022-10-05T04:46:08.858Z,0.80
2022-10-05T04:49:13.640Z,0.93
2022-10-05T04:51:40.743Z,1.63
2022-10-05T04:54:26.159Z,2.13
2022-10-05T04:57:01.975Z,1.52
2022-10-05T05:00:02.262Z,2.30
2022-10-05T05:02:48.458Z,1.45
2022-10-05T05:05:24.859Z,0.93
2022-10-05T05:08:13.899Z,1.20
2022-10-05T05:11:15.830Z,1.13
2022-10-05T05:14:04.471Z,2.47
2022-10-05T05:16:40.244Z,1.13
2022-10-05T05:19:32.241Z,1.65
2022-10-05T05:22:34.699Z,1.50
2022-10-05T05:25:20.074Z,1.10
2022-10-05T05:28:13.540Z,1.38
2022-10-05T05:30:53.307Z,1.38
2022-10-05T05:33:23.386Z,1.92
2022-10-05T05:36:34.817Z,1.55
2022-10-05T05:39:35.844Z,1.02
2022-10-05T05:42:23.645Z,1.50
2022-10-05T05:47:23.960Z,2.10
2022-10-05T05:50:06.948Z,1.25
2022-10-05T05:52:46.803Z,1.98
2022-10-05T05:55:21.210Z,1.20
2022-10-05T05:58:04.381Z,0.95
2022-10-05T06:00:42.163Z,1.25
2022-10-05T06:03:33.940Z,1.65
2022-10-05T06:06:07.072Z,1.13
2022-10-05T06:08:41.694Z,1.55
2022-10-05T06:11:19.479Z,1.55
2022-10-05T06:13:48.132Z,1.55
2022-10-05T06:16:52.230Z,1.55
2022-10-05T06:19:23.515Z,0.85
2022-10-05T06:22:18.471Z,1.45
2022-10-05T06:25:00.745Z,1.25
2022-10-05T06:27:37.984Z,0.90
2022-10-05T06:30:15.319Z,1.15
2022-10-05T06:33:12.141Z,1.98
2022-10-05T06:35:39.275Z,0.98
2022-10-05T06:38:44.828Z,1.00
2022-10-05T06:41:34.464Z,1.58
2022-10-05T06:44:27.483Z,1.70
2022-10-05T06:47:18.438Z,1.33
2022-10-05T06:50:08.960Z,1.45
2022-10-05T06:52:38.878Z,1.80
2022-10-05T06:55:24.352Z,1.67
2022-10-05T06:58:06.962Z,1.25
2022-10-05T07:00:43.721Z,1.20
2022-10-05T07:03:48.623Z,0.60
2022-10-05T07:06:21.853Z,1.30
2022-10-05T07:09:10.428Z,0.60
2022-10-05T07:12:04.609Z,1.88
2022-10-05T07:14:55.543Z,2.30
2022-10-05T07:17:42.767Z,1.65
2022-10-05T07:20:35.043Z,1.02
2022-10-05T07:23:08.043Z,1.27
2022-10-05T07:25:51.020Z,2.80
2022-10-05T07:28:49.110Z,2.15
2022-10-05T07:31:21.929Z,1.15
2022-10-05T07:34:06.197Z,0.60
2022-10-05T07:36:58.235Z,0.65
2022-10-05T07:40:01.167Z,0.95
2022-10-05T07:42:52.333Z,0.90
2022-10-05T07:45:47.224Z,0.43
2022-10-05T07:48:16.816Z,0.70
2022-10-05T07:51:07.093Z,0.70
2022-10-05T07:53:40.925Z,1.80
2022-10-05T07:56:29.809Z,0.70
2022-10-05T07:59:08.235Z,1.23
2022-10-05T08:01:42.367Z,1.20
2022-10-05T08:04:17.731Z,0.65
2022-10-05T08:06:53.628Z,1.55
2022-10-05T08:09:37.815Z,0.82
2022-10-05T08:12:10.731Z,0.43
2022-10-05T08:14:57.451Z,1.35
2022-10-05T08:17:55.592Z,0.40
2022-10-05T08:20:25.611Z,0.65
2022-10-05T08:23:07.132Z,0.30
2022-10-05T08:25:46.316Z,0.70
2022-10-05T08:28:22.800Z,0.60
2022-10-05T08:31:19.157Z,0.55
2022-10-05T08:33:55.891Z,0.70
2022-10-05T08:36:40.571Z,0.40
2022-10-05T08:39:19.462Z,0.40
2022-10-05T08:42:37.579Z,0.55
2022-10-05T08:45:39.017Z,0.43
2022-10-05T08:48:43.725Z,0.63
2022-10-05T08:51:51.044Z,0.40
2022-10-05T08:54:35.459Z,0.40
2022-10-05T08:57:32.331Z,0.85
2022-10-05T09:00:19.235Z,0.75
2022-10-05T09:03:09.134Z,0.50
2022-10-05T09:06:14.852Z,1.45
2022-10-05T09:09:25.061Z,0.60
2022-10-05T09:12:09.627Z,0.45
2022-10-05T09:15:24.978Z,0.30
2022-10-05T09:18:04.847Z,0.47
2022-10-05T09:20:54.693Z,0.30
2022-10-05T09:23:37.562Z,0.25
2022-10-05T09:26:09.480Z,0.50
2022-10-05T09:29:04.261Z,4.78
2022-10-05T09:32:11.760Z,1.00
2022-10-05T09:35:16.725Z,0.70
2022-10-05T09:38:02.887Z,0.50
2022-10-05T09:40:54.408Z,0.93
2022-10-05T09:43:52.063Z,0.47
2022-10-05T09:46:50.751Z,0.35
2022-10-05T09:49:39.342Z,0.38
2022-10-05T09:52:09.515Z,0.40
2022-10-05T09:55:08.200Z,0.40
2022-10-05T09:57:53.952Z,0.32
2022-10-05T10:01:08.983Z,0.38
2022-10-05T10:04:14.230Z,0.50
2022-10-05T10:07:02.703Z,0.30
2022-10-05T10:10:40.676Z,0.35
2022-10-05T10:13:27.147Z,0.40
2022-10-05T10:16:14.183Z,0.40
2022-10-05T10:19:13.051Z,0.75
2022-10-05T10:22:06.547Z,0.13
2022-10-05T10:24:57.885Z,0.43
2022-10-05T10:27:57.751Z,0.65
2022-10-05T10:31:02.650Z,0.52
2022-10-05T10:33:46.624Z,0.73
2022-10-05T10:36:28.004Z,0.57
2022-10-05T10:39:00.528Z,0.55
2022-10-05T10:41:51.594Z,3.00
2022-10-05T10:44:47.404Z,1.27
2022-10-05T10:47:29.331Z,0.70
2022-10-05T10:50:11.910Z,0.30
2022-10-05T10:53:00.160Z,0.13
2022-10-05T10:56:04.997Z,0.13
2022-10-05T10:58:44.385Z,0.60
2022-10-05T11:01:30.166Z,0.20
2022-10-05T11:04:20.208Z,0.60
2022-10-05T11:07:07.975Z,0.75
2022-10-05T11:10:21.574Z,0.52
2022-10-05T11:12:58.325Z,0.22
2022-10-05T11:15:43.860Z,0.17
2022-10-05T11:18:41.566Z,0.70
2022-10-05T11:21:18.038Z,0.55
2022-10-05T11:24:07.842Z,0.30
2022-10-05T11:26:39.218Z,0.40
2022-10-05T11:29:36.802Z,0.40
2022-10-05T11:32:31.602Z,0.32
2022-10-05T11:35:36.912Z,0.60
2022-10-05T11:38:18.991Z,0.30
2022-10-05T11:41:14.055Z,0.32
2022-10-05T11:43:54.145Z,0.30
2022-10-05T11:47:04.716Z,0.65
2022-10-05T11:50:06.075Z,0.60
2022-10-05T11:52:47.087Z,0.40
2022-10-05T11:55:45.580Z,0.40
2022-10-05T11:58:37.403Z,0.75
2022-10-05T12:01:29.318Z,0.82
2022-10-05T12:04:05.459Z,1.50
2022-10-05T12:07:19.003Z,1.23
2022-10-05T12:10:17.284Z,2.15
2022-10-05T12:13:13.507Z,2.85
2022-10-05T12:15:45.821Z,0.88
2022-10-05T12:18:17.343Z,0.68
2022-10-05T12:20:55.873Z,0.52
2022-10-05T12:23:43.322Z,2.05
2022-10-05T12:28:47.632Z,0.95
2022-10-05T12:31:20.984Z,0.82
2022-10-05T12:33:48.131Z,0.30
2022-10-05T12:36:21.923Z,0.77
2022-10-05T12:38:55.167Z,0.95
2022-10-05T12:42:01.062Z,0.95
2022-10-05T12:44:51.057Z,0.65
2022-10-05T12:47:42.832Z,0.40
2022-10-05T12:50:34.693Z,0.40
2022-10-05T12:53:25.373Z,0.60
2022-10-05T12:56:21.751Z,1.20
2022-10-05T12:58:57.909Z,0.60
2022-10-05T13:01:54.222Z,0.63
2022-10-05T13:04:27.132Z,0.60
2022-10-05T13:06:59.950Z,0.40
2022-10-05T13:09:41.430Z,0.50
2022-10-05T13:12:23.972Z,0.65
2022-10-05T13:15:03.474Z,0.28
2022-10-05T13:17:46.078Z,0.30
2022-10-05T13:20:21.535Z,0.28
2022-10-05T13:22:59.843Z,0.10
2022-10-05T13:25:45.027Z,0.52
2022-10-05T13:28:22.533Z,0.30
2022-10-05T13:31:03.515Z,0.40
2022-10-05T13:33:50.852Z,0.38
2022-10-05T13:36:43.170Z,0.50
2022-10-05T13:39:47.255Z,0.20
2022-10-05T13:42:56.065Z,0.20
2022-10-05T13:45:31.457Z,0.20
2022-10-05T13:48:14.497Z,0.20
2022-10-05T13:51:16.819Z,0.22
2022-10-05T13:53:56.630Z,0.30
2022-10-05T13:56:45.598Z,0.20
2022-10-05T13:59:36.559Z,0.10
2022-10-05T14:02:12.556Z,0.40
2022-10-05T14:04:47.779Z,0.10
2022-10-05T14:07:49.141Z,0.20
2022-10-05T14:10:40.723Z,0.30
2022-10-05T14:13:22.773Z,0.30
2022-10-05T14:15:59.720Z,0.10
2022-10-05T14:18:31.287Z,0.40
2022-10-05T14:21:08.652Z,0.25
2022-10-05T14:23:36.285Z,0.63
2022-10-05T14:28:39.572Z,0.10
2022-10-05T14:31:16.068Z,0.05
2022-10-05T14:33:43.478Z,0.30
2022-10-05T14:36:44.157Z,0.10
2022-10-05T14:39:14.408Z,0.38
2022-10-05T14:41:49.591Z,0.40
2022-10-05T14:44:19.706Z,0.57
2022-10-05T14:46:54.675Z,0.35
2022-10-05T14:49:23.495Z,0.47
2022-10-05T14:51:51.958Z,0.40
2022-10-05T14:54:44.077Z,0.10
2022-10-05T14:57:53.065Z,0.10
2022-10-05T15:00:20.465Z,0.43
2022-10-05T15:03:18.329Z,0.38
2022-10-05T15:05:50.725Z,0.63
2022-10-05T15:08:45.910Z,0.52
2022-10-05T15:11:47.459Z,0.63
2022-10-05T15:14:35.266Z,0.73
2022-10-05T15:17:16.625Z,0.13
2022-10-05T15:19:56.370Z,0.25
2022-10-05T15:22:30.652Z,0.35
2022-10-05T15:25:42.026Z,0.20
2022-10-05T15:28:18.046Z,0.10
2022-10-05T15:30:59.559Z,0.43
2022-10-05T15:33:43.597Z,0.28
2022-10-05T15:36:19.847Z,0.35
2022-10-05T15:39:13.854Z,0.20
2022-10-05T15:42:13.224Z,0.47
2022-10-05T15:45:17.418Z,0.47
2022-10-05T15:48:03.064Z,0.80
2022-10-05T15:50:46.013Z,0.43
2022-10-05T15:53:23.614Z,0.52
2022-10-05T15:55:56.234Z,0.25
2022-10-05T15:58:36.050Z,0.40
2022-10-05T16:01:27.458Z,0.80
2022-10-05T16:04:15.661Z,0.75
2022-10-05T16:07:12.923Z,1.00
2022-10-05T16:10:01.765Z,1.00
2022-10-05T16:12:41.135Z,1.02
2022-10-05T16:15:39.182Z,0.60
2022-10-05T16:18:37.711Z,1.45
2022-10-05T16:21:46.182Z,0.70
2022-10-05T16:24:41.429Z,1.05
2022-10-05T16:27:31.330Z,1.00
2022-10-05T16:30:08.884Z,0.95
2022-10-05T16:32:43.454Z,1.42
2022-10-05T16:35:44.550Z,1.00
2022-10-05T16:38:44.039Z,1.15
2022-10-05T16:41:20.503Z,0.95
2022-10-05T16:43:56.357Z,0.52
2022-10-05T16:46:44.857Z,0.65
2022-10-05T16:49:30.667Z,1.27
2022-10-05T16:52:00.635Z,0.90
2022-10-05T16:54:31.822Z,0.95
2022-10-05T16:57:24.540Z,1.40
2022-10-05T17:00:15.556Z,1.25
2022-10-05T17:02:52.096Z,1.85
2022-10-05T17:05:55.408Z,1.67
2022-10-05T17:08:30.549Z,1.70
2022-10-05T17:11:32.865Z,1.67
2022-10-05T17:14:16.228Z,1.67
2022-10-05T17:16:46.393Z,1.63
2022-10-05T17:19:19.826Z,1.42
2022-10-05T17:22:00.980Z,2.33
2022-10-05T17:24:36.683Z,2.15
2022-10-05T17:27:35.702Z,2.72
2022-10-05T17:30:21.477Z,2.17
2022-10-05T17:33:05.010Z,2.78
2022-10-05T17:35:58.451Z,2.92
2022-10-05T17:38:31.507Z,2.55
2022-10-05T17:41:04.425Z,1.77
2022-10-05T17:43:33.048Z,2.45
2022-10-05T17:46:02.955Z,1.80
2022-10-05T17:48:48.739Z,1.50
2022-10-05T17:51:55.578Z,1.58
2022-10-05T17:55:04.042Z,1.50
2022-10-05T17:57:32.111Z,1.05
2022-10-05T18:02:37.037Z,1.42
2022-10-05T18:05:06.944Z,1.35
2022-10-05T18:07:36.029Z,1.85
2022-10-05T18:10:12.075Z,1.55
2022-10-05T18:12:50.094Z,2.75
2022-10-05T18:15:26.459Z,1.98
2022-10-05T18:18:00.008Z,2.03
2022-10-05T18:20:33.512Z,1.88
2022-10-05T18:23:03.334Z,2.10
2022-10-05T18:25:45.199Z,2.45
2022-10-05T18:28:23.877Z,1.92
2022-10-05T18:31:39.156Z,3.45
2022-10-05T18:34:28.750Z,1.85
2022-10-05T18:37:13.110Z,1.88
2022-10-05T18:40:03.893Z,2.10
2022-10-05T18:43:00.870Z,1.58
2022-10-05T18:45:51.281Z,2.08
2022-10-05T18:48:55.543Z,1.63
2022-10-05T18:51:46.326Z,1.27
2022-10-05T18:54:30.621Z,1.17
2022-10-05T18:57:02.726Z,0.90
2022-10-05T18:59:56.105Z,1.08
2022-10-05T19:02:36.743Z,0.93
2022-10-05T19:05:47.895Z,0.50
2022-10-05T19:08:42.197Z,0.50
2022-10-05T19:11:36.808Z,0.90
2022-10-05T19:14:09.794Z,0.70
2022-10-05T19:17:02.929Z,1.25
2022-10-05T19:20:00.064Z,1.17
2022-10-05T19:22:42.539Z,1.98
2022-10-05T19:25:26.185Z,1.23
2022-10-05T19:27:57.092Z,0.88
2022-10-05T19:30:27.750Z,1.40
2022-10-05T19:33:20.204Z,1.05
2022-10-05T19:36:05.287Z,1.30
2022-10-05T19:38:56.413Z,0.98
2022-10-05T19:41:30.038Z,1.30
2022-10-05T19:44:08.920Z,0.90
2022-10-05T19:47:05.250Z,1.15
2022-10-05T19:49:43.897Z,1.05
2022-10-05T19:52:22.771Z,0.88
2022-10-05T19:55:22.657Z,1.65
2022-10-05T19:58:01.578Z,0.70
2022-10-05T20:00:31.615Z,0.95
2022-10-05T20:03:14.519Z,0.98
2022-10-05T20:05:41.774Z,1.08
2022-10-05T20:08:16.191Z,1.55
2022-10-05T20:10:43.909Z,1.25
2022-10-05T20:13:23.640Z,1.65
2022-10-05T20:16:32.064Z,1.00
2022-10-05T20:19:18.204Z,1.00
2022-10-05T20:22:50.742Z,0.80
2022-10-05T20:25:17.974Z,1.15
2022-10-05T20:27:51.482Z,1.42
2022-10-05T20:30:24.631Z,1.60
2022-10-05T20:43:11.672Z,0.50
2022-10-05T20:46:37.731Z,0.65
2022-10-05T20:49:16.463Z,0.52
2022-10-05T20:51:50.202Z,1.05
2022-10-05T20:54:29.076Z,0.88
2022-10-05T20:56:58.208Z,0.88
2022-10-05T20:59:33.802Z,0.80
2022-10-05T21:02:01.889Z,0.80
2022-10-05T21:07:08.857Z,0.95
2022-10-05T21:09:38.652Z,0.95
2022-10-05T21:12:05.878Z,0.25
2022-10-05T21:14:34.620Z,0.57
2022-10-05T21:17:02.514Z,0.88
2022-10-05T21:19:30.340Z,0.77
2022-10-05T21:22:03.072Z,0.70
2022-10-05T21:24:30.294Z,0.60
2022-10-05T21:26:57.811Z,0.55
2022-10-05T21:29:27.904Z,1.00
2022-10-05T21:31:55.312Z,0.75
2022-10-05T21:34:38.005Z,0.73
2022-10-05T21:37:05.406Z,0.80
2022-10-05T21:39:33.973Z,0.40
2022-10-05T21:42:01.417Z,0.60
2022-10-05T21:44:28.661Z,1.13
2022-10-05T21:46:56.987Z,0.80
2022-10-05T21:49:28.465Z,0.50
2022-10-05T21:51:56.145Z,0.40
2022-10-05T21:54:27.143Z,0.40
2022-10-05T21:56:57.861Z,0.93
2022-10-05T21:59:28.899Z,1.13
2022-10-05T22:01:56.201Z,1.27
2022-10-05T22:04:23.306Z,0.93
2022-10-05T22:06:50.525Z,0.45
2022-10-05T22:09:17.699Z,0.40
2022-10-05T22:11:48.135Z,0.95
2022-10-05T22:14:16.451Z,0.50
2022-10-05T22:16:45.344Z,0.35
2022-10-05T22:19:19.583Z,0.30
2022-10-05T22:21:47.322Z,0.50
2022-10-05T22:24:14.564Z,0.55
2022-10-05T22:26:44.010Z,0.40
2022-10-05T22:29:11.404Z,0.65
2022-10-05T22:31:39.654Z,0.63
2022-10-05T22:34:07.057Z,0.50
2022-10-05T22:36:36.523Z,0.77
2022-10-05T22:39:07.365Z,0.70
2022-10-05T22:41:34.571Z,0.38
2022-10-05T22:44:11.964Z,0.43
2022-10-05T22:47:20.135Z,0.50
2022-10-05T23:01:29.229Z,0.30
2022-10-05T23:07:48.317Z,0.28
2022-10-05T23:11:52.893Z,0.30
2022-10-05T23:15:45.705Z,0.43
2022-10-05T23:19:29.072Z,0.82
2022-10-05T23:22:11.933Z,0.63
2022-10-05T23:24:39.454Z,0.20
2022-10-05T23:27:06.678Z,0.70
2022-10-05T23:29:43.453Z,0.73
2022-10-05T23:32:10.752Z,0.52
2022-10-05T23:34:37.819Z,0.50
2022-10-05T23:37:05.344Z,0.32
2022-10-05T23:39:32.286Z,0.43
2022-10-05T23:42:00.692Z,0.43
2022-10-05T23:44:27.750Z,0.80
2022-10-05T23:46:55.073Z,0.43
2022-10-05T23:49:22.088Z,0.30
2022-10-05T23:51:52.037Z,0.67
2022-10-05T23:54:19.283Z,0.65
2022-10-05T23:56:46.401Z,0.30
2022-10-05T23:59:13.522Z,0.70
